sensor_id;sensor_type;location;lat;lon;timestamp;pressure;altitude;pressure_sealevel;temperature;humidity
59987;BME280;46181;51.498;5.392;2022-10-29T00:04:09;102031.6;;;20.62;60.78906
59987;BME280;46181;51.498;5.392;2022-10-29T00:08:41;102017;;;20.51;60.75
59987;BME280;46181;51.498;5.392;2022-10-29T00:13:11;102014.5;;;20.39;60.96484
59987;BME280;46181;51.498;5.392;2022-10-29T00:17:39;102012.3;;;20.3;61.06738
59987;BME280;46181;51.498;5.392;2022-10-29T00:22:09;102016.2;;;20.2;61.11133
59987;BME280;46181;51.498;5.392;2022-10-29T00:26:40;102016.3;;;20.11;61.22559
59987;BME280;46181;51.498;5.392;2022-10-29T00:31:11;102015.1;;;20.08;61.30078
59987;BME280;46181;51.498;5.392;2022-10-29T00:35:39;102019.6;;;20.1;61.33887
59987;BME280;46181;51.498;5.392;2022-10-29T00:40:10;102015.8;;;20.08;61.28906
59987;BME280;46181;51.498;5.392;2022-10-29T00:44:42;102015.9;;;20.01;61.25781
59987;BME280;46181;51.498;5.392;2022-10-29T00:49:10;102031.6;;;19.93;61.29199
59987;BME280;46181;51.498;5.392;2022-10-29T00:53:41;102030;;;19.89;61.50586
59987;BME280;46181;51.498;5.392;2022-10-29T00:58:09;102027.6;;;19.89;61.50586
59987;BME280;46181;51.498;5.392;2022-10-29T01:02:41;102034.7;;;19.83;61.41797
59987;BME280;46181;51.498;5.392;2022-10-29T01:07:09;102024.8;;;19.75;61.35938
59987;BME280;46181;51.498;5.392;2022-10-29T01:11:47;102018.2;;;19.55;61.38965
59987;BME280;46181;51.498;5.392;2022-10-29T01:16:14;102004.7;;;19.47;61.44629
59987;BME280;46181;51.498;5.392;2022-10-29T01:29:53;101999.2;;;19.25;61.96777
59987;BME280;46181;51.498;5.392;2022-10-29T01:34:14;101995;;;19.25;61.81934
59987;BME280;46181;51.498;5.392;2022-10-29T01:38:44;101988.8;;;19.17;61.89941
59987;BME280;46181;51.498;5.392;2022-10-29T01:43:13;101986;;;19.1;61.98145
59987;BME280;46181;51.498;5.392;2022-10-29T01:47:44;101979.4;;;19.06;62.16992
59987;BME280;46181;51.498;5.392;2022-10-29T01:52:11;101968;;;19.05;61.85938
59987;BME280;46181;51.498;5.392;2022-10-29T01:56:39;101957.1;;;19;61.69238
59987;BME280;46181;51.498;5.392;2022-10-29T02:01:16;101957.1;;;18.92;61.93359
59987;BME280;46181;51.498;5.392;2022-10-29T02:05:42;101957.8;;;18.91;61.80469
59987;BME280;46181;51.498;5.392;2022-10-29T02:10:16;101959.6;;;18.85;61.92285
59987;BME280;46181;51.498;5.392;2022-10-29T02:14:42;101958.7;;;18.87;62.00586
59987;BME280;46181;51.498;5.392;2022-10-29T02:19:09;101950;;;18.88;62.08691
59987;BME280;46181;51.498;5.392;2022-10-29T02:23:39;101946.9;;;18.87;62.08594
59987;BME280;46181;51.498;5.392;2022-10-29T02:28:10;101942.9;;;18.88;62.03027
59987;BME280;46181;51.498;5.392;2022-10-29T02:32:40;101937;;;18.85;62.13965
59987;BME280;46181;51.498;5.392;2022-10-29T02:37:09;101928.2;;;18.85;62.06055
59987;BME280;46181;51.498;5.392;2022-10-29T02:41:39;101922.5;;;18.86;62.06348
59987;BME280;46181;51.498;5.392;2022-10-29T02:46:25;101925.6;;;18.73;62.41113
59987;BME280;46181;51.498;5.392;2022-10-29T02:50:39;101921;;;18.81;62.03223
59987;BME280;46181;51.498;5.392;2022-10-29T02:55:10;101920.7;;;18.78;62.06348
59987;BME280;46181;51.498;5.392;2022-10-29T02:59:40;101918.1;;;18.77;62.12988
59987;BME280;46181;51.498;5.392;2022-10-29T03:04:10;101919.7;;;18.75;62.12695
59987;BME280;46181;51.498;5.392;2022-10-29T03:08:39;101908.3;;;18.7;62.06348
59987;BME280;46181;51.498;5.392;2022-10-29T03:13:10;101914;;;18.67;62.18457
59987;BME280;46181;51.498;5.392;2022-10-29T03:17:39;101904.3;;;18.64;62.24805
59987;BME280;46181;51.498;5.392;2022-10-29T03:22:10;101901.5;;;18.61;62.56445
59987;BME280;46181;51.498;5.392;2022-10-29T03:26:39;101901.8;;;18.62;62.72754
59987;BME280;46181;51.498;5.392;2022-10-29T03:31:09;101895.4;;;18.64;62.71875
59987;BME280;46181;51.498;5.392;2022-10-29T03:35:40;101894.6;;;18.7;62.63477
59987;BME280;46181;51.498;5.392;2022-10-29T03:40:10;101884.2;;;18.76;62.3457
59987;BME280;46181;51.498;5.392;2022-10-29T03:44:39;101879.6;;;18.79;62.23633
59987;BME280;46181;51.498;5.392;2022-10-29T03:49:10;101875.4;;;18.84;62.16211
59987;BME280;46181;51.498;5.392;2022-10-29T03:53:40;101882.9;;;18.89;62.25
59987;BME280;46181;51.498;5.392;2022-10-29T03:58:09;101863;;;18.94;62.15332
59987;BME280;46181;51.498;5.392;2022-10-29T04:02:40;101852.4;;;18.87;62.32617
59987;BME280;46181;51.498;5.392;2022-10-29T04:07:09;101846.6;;;18.82;62.53711
59987;BME280;46181;51.498;5.392;2022-10-29T04:11:40;101846.9;;;18.78;62.79492
59987;BME280;46181;51.498;5.392;2022-10-29T04:16:10;101842.1;;;18.82;62.81152
59987;BME280;46181;51.498;5.392;2022-10-29T04:20:40;101838.4;;;18.9;62.62793
59987;BME280;46181;51.498;5.392;2022-10-29T04:25:10;101835.2;;;18.92;62.5752
59987;BME280;46181;51.498;5.392;2022-10-29T04:29:39;101841.3;;;18.97;62.375
59987;BME280;46181;51.498;5.392;2022-10-29T04:34:10;101830.9;;;18.98;62.30762
59987;BME280;46181;51.498;5.392;2022-10-29T04:38:39;101825.6;;;18.94;62.40527
59987;BME280;46181;51.498;5.392;2022-10-29T04:43:09;101826.4;;;18.87;62.46387
59987;BME280;46181;51.498;5.392;2022-10-29T04:47:39;101834.7;;;18.8;62.79883
59987;BME280;46181;51.498;5.392;2022-10-29T04:52:10;101835.7;;;18.79;62.89941
59987;BME280;46181;51.498;5.392;2022-10-29T04:56:40;101834.9;;;18.75;63.06641
59987;BME280;46181;51.498;5.392;2022-10-29T05:01:12;101823.6;;;18.75;63.26074
59987;BME280;46181;51.498;5.392;2022-10-29T05:05:40;101824.8;;;18.79;63.30176
59987;BME280;46181;51.498;5.392;2022-10-29T05:10:10;101821.8;;;18.8;63.24414
59987;BME280;46181;51.498;5.392;2022-10-29T05:14:39;101821.6;;;18.77;63.29785
59987;BME280;46181;51.498;5.392;2022-10-29T05:19:09;101817.4;;;18.79;63.31152
59987;BME280;46181;51.498;5.392;2022-10-29T05:23:40;101811.8;;;18.82;63.35156
59987;BME280;46181;51.498;5.392;2022-10-29T05:28:15;101811;;;18.82;63.39746
59987;BME280;46181;51.498;5.392;2022-10-29T05:32:40;101810.1;;;18.91;63.29395
59987;BME280;46181;51.498;5.392;2022-10-29T05:37:09;101800;;;19.01;63.19531
59987;BME280;46181;51.498;5.392;2022-10-29T05:41:39;101800.5;;;19.08;63.35449
59987;BME280;46181;51.498;5.392;2022-10-29T05:46:09;101799.2;;;19.16;63.28516
59987;BME280;46181;51.498;5.392;2022-10-29T05:50:40;101792.4;;;19.2;63.3252
59987;BME280;46181;51.498;5.392;2022-10-29T05:55:10;101783.7;;;19.16;63.51465
59987;BME280;46181;51.498;5.392;2022-10-29T05:59:39;101788.8;;;19.18;63.82715
59987;BME280;46181;51.498;5.392;2022-10-29T06:04:10;101779.3;;;19.25;63.99707
59987;BME280;46181;51.498;5.392;2022-10-29T06:08:40;101780.4;;;19.34;63.95215
59987;BME280;46181;51.498;5.392;2022-10-29T06:13:14;101785.1;;;19.43;63.94238
59987;BME280;46181;51.498;5.392;2022-10-29T06:17:43;101810;;;19.48;63.8584
59987;BME280;46181;51.498;5.392;2022-10-29T06:22:09;101804.5;;;19.55;63.78809
59987;BME280;46181;51.498;5.392;2022-10-29T06:26:40;101815.8;;;19.6;63.75977
59987;BME280;46181;51.498;5.392;2022-10-29T06:31:10;101811.5;;;19.63;63.76563
59987;BME280;46181;51.498;5.392;2022-10-29T06:35:40;101807.6;;;19.62;63.69336
59987;BME280;46181;51.498;5.392;2022-10-29T06:40:10;101807.5;;;19.53;63.77441
59987;BME280;46181;51.498;5.392;2022-10-29T06:44:39;101811.3;;;19.42;63.91797
59987;BME280;46181;51.498;5.392;2022-10-29T06:49:10;101814.8;;;19.34;64.01074
59987;BME280;46181;51.498;5.392;2022-10-29T06:53:40;101817.5;;;19.36;64.16113
59987;BME280;46181;51.498;5.392;2022-10-29T06:58:13;101820;;;19.43;64.14941
59987;BME280;46181;51.498;5.392;2022-10-29T07:02:42;101832;;;19.54;64.04883
59987;BME280;46181;51.498;5.392;2022-10-29T07:07:10;101822.3;;;19.61;63.88867
59987;BME280;46181;51.498;5.392;2022-10-29T07:11:40;101808.9;;;19.59;63.98828
59987;BME280;46181;51.498;5.392;2022-10-29T07:16:10;101808.9;;;19.62;64.0625
59987;BME280;46181;51.498;5.392;2022-10-29T07:20:42;101800.6;;;19.66;64.18164
59987;BME280;46181;51.498;5.392;2022-10-29T07:25:10;101791.4;;;19.69;64.11719
59987;BME280;46181;51.498;5.392;2022-10-29T07:29:40;101781;;;19.72;64.21289
59987;BME280;46181;51.498;5.392;2022-10-29T07:34:10;101782.5;;;19.75;64.17188
59987;BME280;46181;51.498;5.392;2022-10-29T07:38:40;101782.8;;;19.83;64.25391
59987;BME280;46181;51.498;5.392;2022-10-29T07:43:10;101784.3;;;19.9;64.15918
59987;BME280;46181;51.498;5.392;2022-10-29T07:47:40;101785;;;19.98;64.13574
59987;BME280;46181;51.498;5.392;2022-10-29T07:52:10;101778.8;;;20.04;64.12305
59987;BME280;46181;51.498;5.392;2022-10-29T07:56:40;101790.3;;;20.1;63.98145
59987;BME280;46181;51.498;5.392;2022-10-29T08:01:11;101788;;;20.19;64.09766
59987;BME280;46181;51.498;5.392;2022-10-29T08:05:40;101777.6;;;20.43;63.94922
59987;BME280;46181;51.498;5.392;2022-10-29T08:10:10;101780.7;;;20.69;63.69824
59987;BME280;46181;51.498;5.392;2022-10-29T08:14:40;101778.3;;;20.96;63.18359
59987;BME280;46181;51.498;5.392;2022-10-29T08:19:10;101768.7;;;21.16;62.78613
59987;BME280;46181;51.498;5.392;2022-10-29T08:23:40;101763.2;;;21.28;62.45703
59987;BME280;46181;51.498;5.392;2022-10-29T08:28:12;101767.8;;;21.24;62.29004
59987;BME280;46181;51.498;5.392;2022-10-29T08:32:40;101762.2;;;21.23;62.47266
59987;BME280;46181;51.498;5.392;2022-10-29T08:37:10;101771;;;21.33;62.7168
59987;BME280;46181;51.498;5.392;2022-10-29T08:41:53;101775.7;;;21.43;62.85938
59987;BME280;46181;51.498;5.392;2022-10-29T08:46:14;101766.7;;;21.74;62.42969
59987;BME280;46181;51.498;5.392;2022-10-29T08:50:43;101760.9;;;21.99;62.00391
59987;BME280;46181;51.498;5.392;2022-10-29T08:55:16;101760.1;;;22.17;61.4502
59987;BME280;46181;51.498;5.392;2022-10-29T08:59:45;101762.5;;;22.32;61.08887
59987;BME280;46181;51.498;5.392;2022-10-29T09:04:15;101753.2;;;22.41;60.7666
59987;BME280;46181;51.498;5.392;2022-10-29T09:08:55;101752.5;;;22.56;60.75195
59987;BME280;46181;51.498;5.392;2022-10-29T09:13:28;101747;;;22.78;60.55078
59987;BME280;46181;51.498;5.392;2022-10-29T09:17:44;101754.1;;;23.04;59.90234
59987;BME280;46181;51.498;5.392;2022-10-29T09:22:19;101758.9;;;23.19;59.15918
59987;BME280;46181;51.498;5.392;2022-10-29T09:26:51;101763;;;23.27;58.74121
59987;BME280;46181;51.498;5.392;2022-10-29T09:31:18;101737.1;;;23.32;58.2373
59987;BME280;46181;51.498;5.392;2022-10-29T09:35:46;101749.1;;;23.31;57.83008
59987;BME280;46181;51.498;5.392;2022-10-29T09:40:17;101731.8;;;23.33;57.61328
59987;BME280;46181;51.498;5.392;2022-10-29T09:44:47;101736.5;;;23.38;57.29492
59987;BME280;46181;51.498;5.392;2022-10-29T09:49:14;101734.3;;;23.56;57.00391
59987;BME280;46181;51.498;5.392;2022-10-29T09:53:40;101730.5;;;23.78;56.51074
59987;BME280;46181;51.498;5.392;2022-10-29T09:58:11;101717.5;;;24.04;55.76563
59987;BME280;46181;51.498;5.392;2022-10-29T10:02:43;101717.6;;;24.25;54.96582
59987;BME280;46181;51.498;5.392;2022-10-29T10:07:15;101714;;;24.5;54.06641
59987;BME280;46181;51.498;5.392;2022-10-29T10:11:47;101703.7;;;24.53;53.03418
59987;BME280;46181;51.498;5.392;2022-10-29T10:16:11;101709.6;;;24.4;53.1123
59987;BME280;46181;51.498;5.392;2022-10-29T10:20:42;101704.8;;;24.3;53.12402
59987;BME280;46181;51.498;5.392;2022-10-29T10:25:17;101706.4;;;24.32;53.14941
59987;BME280;46181;51.498;5.392;2022-10-29T10:29:40;101708.3;;;24.3;53.04199
59987;BME280;46181;51.498;5.392;2022-10-29T10:34:17;101700;;;24.29;53.21484
59987;BME280;46181;51.498;5.392;2022-10-29T10:38:45;101707.6;;;24.38;53.08594
59987;BME280;46181;51.498;5.392;2022-10-29T10:43:16;101693.1;;;24.54;52.81348
59987;BME280;46181;51.498;5.392;2022-10-29T10:47:42;101690;;;24.68;52.21387
59987;BME280;46181;51.498;5.392;2022-10-29T10:52:17;101681.6;;;24.83;51.55469
59987;BME280;46181;51.498;5.392;2022-10-29T11:01:12;101676.6;;;25.03;50.84277
59987;BME280;46181;51.498;5.392;2022-10-29T11:05:43;101677.6;;;25.15;50.35547
59987;BME280;46181;51.498;5.392;2022-10-29T11:10:12;101675.7;;;25.28;49.97266
59987;BME280;46181;51.498;5.392;2022-10-29T11:14:48;101667.8;;;25.43;49.68652
59987;BME280;46181;51.498;5.392;2022-10-29T11:19:17;101674.7;;;25.59;49.2832
59987;BME280;46181;51.498;5.392;2022-10-29T11:23:47;101669.3;;;25.76;48.93945
59987;BME280;46181;51.498;5.392;2022-10-29T11:28:19;101664.7;;;25.96;48.41309
59987;BME280;46181;51.498;5.392;2022-10-29T11:32:48;101662.6;;;26.26;47.98828
59987;BME280;46181;51.498;5.392;2022-10-29T11:37:14;101658.3;;;26.5;47.42871
59987;BME280;46181;51.498;5.392;2022-10-29T11:41:43;101651.1;;;26.77;46.88281
59987;BME280;46181;51.498;5.392;2022-10-29T11:46:13;101649.2;;;27.11;46.07324
59987;BME280;46181;51.498;5.392;2022-10-29T11:50:46;101646;;;27.26;45.39648
59987;BME280;46181;51.498;5.392;2022-10-29T11:55:24;101638.4;;;27.26;45.11523
59987;BME280;46181;51.498;5.392;2022-10-29T11:59:51;101638.2;;;27.19;45.55273
59987;BME280;46181;51.498;5.392;2022-10-29T12:04:21;101640.1;;;27.14;45.52539
59987;BME280;46181;51.498;5.392;2022-10-29T12:13:18;101627.2;;;27.03;45.30273
59987;BME280;46181;51.498;5.392;2022-10-29T12:17:44;101623.3;;;27.05;45.18848
59987;BME280;46181;51.498;5.392;2022-10-29T12:22:25;101616.1;;;27.05;45.11816
59987;BME280;46181;51.498;5.392;2022-10-29T12:26:45;101604.5;;;27.02;45.19727
59987;BME280;46181;51.498;5.392;2022-10-29T12:31:27;101598.1;;;26.98;45.19141
59987;BME280;46181;51.498;5.392;2022-10-29T12:35:44;101592.4;;;27;44.78418
59987;BME280;46181;51.498;5.392;2022-10-29T12:40:17;101584.1;;;27.01;44.51465
59987;BME280;46181;51.498;5.392;2022-10-29T12:44:48;101578.5;;;27.03;44.29492
59987;BME280;46181;51.498;5.392;2022-10-29T12:49:14;101574.1;;;27.08;44.22852
59987;BME280;46181;51.498;5.392;2022-10-29T12:53:45;101574.5;;;27.12;44.12695
59987;BME280;46181;51.498;5.392;2022-10-29T12:58:46;101574.6;;;27.07;43.91113
59987;BME280;46181;51.498;5.392;2022-10-29T13:02:49;101573.3;;;27.15;43.35547
59987;BME280;46181;51.498;5.392;2022-10-29T13:07:30;101559.1;;;27.05;43.59277
59987;BME280;46181;51.498;5.392;2022-10-29T13:11:52;101555.9;;;27.06;43.74609
59987;BME280;46181;51.498;5.392;2022-10-29T13:16:14;101549.4;;;27.12;43.61133
59987;BME280;46181;51.498;5.392;2022-10-29T13:20:45;101546.3;;;27.11;43.85547
59987;BME280;46181;51.498;5.392;2022-10-29T13:34:10;101540.7;;;27.06;44.00391
59987;BME280;46181;51.498;5.392;2022-10-29T13:43:13;101532.4;;;26.99;44.11426
59987;BME280;46181;51.498;5.392;2022-10-29T13:47:41;101532.1;;;27.02;44.44629
59987;BME280;46181;51.498;5.392;2022-10-29T13:52:13;101534;;;27.11;44.77148
59987;BME280;46181;51.498;5.392;2022-10-29T13:56:43;101533.8;;;27.23;44.60742
59987;BME280;46181;51.498;5.392;2022-10-29T14:01:16;101522.9;;;27.34;44.65234
59987;BME280;46181;51.498;5.392;2022-10-29T14:05:46;101519.8;;;27.41;44.625
59987;BME280;46181;51.498;5.392;2022-10-29T14:10:16;101520.8;;;27.47;44.67773
59987;BME280;46181;51.498;5.392;2022-10-29T14:14:44;101519.6;;;27.49;44.53809
59987;BME280;46181;51.498;5.392;2022-10-29T14:19:21;101518.2;;;27.42;44.7666
59987;BME280;46181;51.498;5.392;2022-10-29T14:23:45;101519.5;;;27.51;44.63477
59987;BME280;46181;51.498;5.392;2022-10-29T14:28:26;101524;;;27.41;44.88379
59987;BME280;46181;51.498;5.392;2022-10-29T14:32:45;101522.5;;;27.45;44.26465
59987;BME280;46181;51.498;5.392;2022-10-29T14:37:14;101526.2;;;27.43;44.31055
59987;BME280;46181;51.498;5.392;2022-10-29T14:41:40;101532.9;;;27.43;44.61426
59987;BME280;46181;51.498;5.392;2022-10-29T14:46:24;101527.4;;;27.28;44.76465
59987;BME280;46181;51.498;5.392;2022-10-29T14:50:43;101523;;;27.34;44.91211
59987;BME280;46181;51.498;5.392;2022-10-29T14:55:13;101523.9;;;27.31;44.99121
59987;BME280;46181;51.498;5.392;2022-10-29T14:59:42;101515.7;;;27.25;45.0791
59987;BME280;46181;51.498;5.392;2022-10-29T15:04:14;101511.1;;;27.21;45.12109
59987;BME280;46181;51.498;5.392;2022-10-29T15:08:52;101512.2;;;27.08;45.41406
59987;BME280;46181;51.498;5.392;2022-10-29T15:13:30;101511.5;;;26.96;45.55469
59987;BME280;46181;51.498;5.392;2022-10-29T15:17:41;101506;;;26.94;45.45801
59987;BME280;46181;51.498;5.392;2022-10-29T15:22:17;101499.8;;;26.79;45.58398
59987;BME280;46181;51.498;5.392;2022-10-29T15:26:47;101496.7;;;26.7;45.58594
59987;BME280;46181;51.498;5.392;2022-10-29T15:31:15;101487.7;;;26.53;46.00293
59987;BME280;46181;51.498;5.392;2022-10-29T15:35:48;101483.9;;;26.44;46.06445
59987;BME280;46181;51.498;5.392;2022-10-29T15:40:13;101473.3;;;26.27;46.26953
59987;BME280;46181;51.498;5.392;2022-10-29T15:44:42;101466.7;;;26.16;46.22266
59987;BME280;46181;51.498;5.392;2022-10-29T15:49:12;101452.6;;;26.08;46.14453
59987;BME280;46181;51.498;5.392;2022-10-29T15:53:40;101443.3;;;26;46.38184
59987;BME280;46181;51.498;5.392;2022-10-29T15:58:15;101449.4;;;25.9;46.60547
59987;BME280;46181;51.498;5.392;2022-10-29T16:02:40;101451;;;25.84;46.85742
59987;BME280;46181;51.498;5.392;2022-10-29T16:07:11;101450.7;;;25.75;47.33789
59987;BME280;46181;51.498;5.392;2022-10-29T16:11:42;101451.8;;;25.68;47.84473
59987;BME280;46181;51.498;5.392;2022-10-29T16:16:12;101445.4;;;25.63;48.29492
59987;BME280;46181;51.498;5.392;2022-10-29T16:20:40;101441.2;;;25.57;48.61523
59987;BME280;46181;51.498;5.392;2022-10-29T16:25:18;101438.3;;;25.52;48.90137
59987;BME280;46181;51.498;5.392;2022-10-29T16:29:40;101438.1;;;25.49;49.26074
59987;BME280;46181;51.498;5.392;2022-10-29T16:34:11;101435.2;;;25.43;49.57031
59987;BME280;46181;51.498;5.392;2022-10-29T16:38:40;101436.6;;;25.41;49.8252
59987;BME280;46181;51.498;5.392;2022-10-29T16:43:11;101432.7;;;25.35;50.0625
59987;BME280;46181;51.498;5.392;2022-10-29T16:47:40;101430.6;;;25.31;50.30273
59987;BME280;46181;51.498;5.392;2022-10-29T16:52:11;101430.3;;;25.26;50.50781
59987;BME280;46181;51.498;5.392;2022-10-29T16:56:40;101432;;;25.21;50.54883
59987;BME280;46181;51.498;5.392;2022-10-29T17:01:14;101417.5;;;25.11;50.5957
59987;BME280;46181;51.498;5.392;2022-10-29T17:05:43;101411;;;25.07;50.63672
59987;BME280;46181;51.498;5.392;2022-10-29T17:10:10;101406.6;;;25.01;50.75879
59987;BME280;46181;51.498;5.392;2022-10-29T17:14:40;101399.3;;;24.92;50.87695
59987;BME280;46181;51.498;5.392;2022-10-29T17:19:10;101399.4;;;24.81;51.15527
59987;BME280;46181;51.498;5.392;2022-10-29T17:23:40;101395.8;;;24.71;51.38965
59987;BME280;46181;51.498;5.392;2022-10-29T17:28:10;101393;;;24.67;51.4541
59987;BME280;46181;51.498;5.392;2022-10-29T17:32:40;101403;;;24.61;51.53027
59987;BME280;46181;51.498;5.392;2022-10-29T17:37:10;101437.1;;;24.55;51.55762
59987;BME280;46181;51.498;5.392;2022-10-29T17:41:40;101446.5;;;24.51;51.70508
59987;BME280;46181;51.498;5.392;2022-10-29T17:46:10;101448.9;;;24.48;51.94531
59987;BME280;46181;51.498;5.392;2022-10-29T17:50:40;101460.7;;;24.42;52.07813
59987;BME280;46181;51.498;5.392;2022-10-29T17:55:10;101472.6;;;24.37;52.25977
59987;BME280;46181;51.498;5.392;2022-10-29T17:59:40;101474.5;;;24.31;52.55371
59987;BME280;46181;51.498;5.392;2022-10-29T18:04:13;101479.9;;;24.25;52.5
59987;BME280;46181;51.498;5.392;2022-10-29T18:08:42;101481.4;;;24.18;52.58496
59987;BME280;46181;51.498;5.392;2022-10-29T18:13:10;101491.1;;;24.15;52.59375
59987;BME280;46181;51.498;5.392;2022-10-29T18:17:40;101489.3;;;24.11;52.58887
59987;BME280;46181;51.498;5.392;2022-10-29T18:22:10;101483.5;;;24.04;52.65039
59987;BME280;46181;51.498;5.392;2022-10-29T18:26:41;101489.5;;;23.96;52.6416
59987;BME280;46181;51.498;5.392;2022-10-29T18:31:10;101481.9;;;23.92;52.06641
59987;BME280;46181;51.498;5.392;2022-10-29T18:35:40;101484.7;;;23.88;51.8291
59987;BME280;46181;51.498;5.392;2022-10-29T18:40:11;101479.6;;;23.82;51.63672
59987;BME280;46181;51.498;5.392;2022-10-29T18:44:40;101482.1;;;23.73;51.5332
59987;BME280;46181;51.498;5.392;2022-10-29T18:49:11;101489.3;;;23.68;51.55176
59987;BME280;46181;51.498;5.392;2022-10-29T18:53:41;101478.2;;;23.62;51.40332
59987;BME280;46181;51.498;5.392;2022-10-29T18:58:10;101476;;;23.56;51.52539
59987;BME280;46181;51.498;5.392;2022-10-29T19:02:40;101477.9;;;23.52;51.39258
59987;BME280;46181;51.498;5.392;2022-10-29T19:07:10;101475.9;;;23.48;51.39941
59987;BME280;46181;51.498;5.392;2022-10-29T19:11:40;101477.5;;;23.47;51.13086
59987;BME280;46181;51.498;5.392;2022-10-29T19:16:14;101472.7;;;23.39;51.15723
59987;BME280;46181;51.498;5.392;2022-10-29T19:20:41;101465.4;;;23.38;50.95898
59987;BME280;46181;51.498;5.392;2022-10-29T19:25:10;101471.1;;;23.36;50.99121
59987;BME280;46181;51.498;5.392;2022-10-29T19:29:40;101470.4;;;23.33;50.94238
59987;BME280;46181;51.498;5.392;2022-10-29T19:34:12;101479.9;;;23.25;51.12988
59987;BME280;46181;51.498;5.392;2022-10-29T19:38:40;101490.7;;;23.18;51.20313
59987;BME280;46181;51.498;5.392;2022-10-29T19:43:10;101486.4;;;23.08;51.15625
59987;BME280;46181;51.498;5.392;2022-10-29T19:47:41;101491.7;;;22.97;51.17969
59987;BME280;46181;51.498;5.392;2022-10-29T19:52:10;101497.1;;;22.87;51.30664
59987;BME280;46181;51.498;5.392;2022-10-29T19:56:40;101493.8;;;22.76;51.28223
59987;BME280;46181;51.498;5.392;2022-10-29T20:01:16;101493.8;;;22.62;51.40625
59987;BME280;46181;51.498;5.392;2022-10-29T20:05:42;101500;;;22.55;51.3877
59987;BME280;46181;51.498;5.392;2022-10-29T20:10:10;101504.6;;;22.5;51.48438
59987;BME280;46181;51.498;5.392;2022-10-29T20:14:40;101500.4;;;22.49;51.4834
59987;BME280;46181;51.498;5.392;2022-10-29T20:19:10;101508.3;;;22.52;51.38184
59987;BME280;46181;51.498;5.392;2022-10-29T20:23:40;101503.9;;;22.52;51.34863
59987;BME280;46181;51.498;5.392;2022-10-29T20:28:10;101512;;;22.54;51.32617
59987;BME280;46181;51.498;5.392;2022-10-29T20:32:40;101510.8;;;22.51;51.27832
59987;BME280;46181;51.498;5.392;2022-10-29T20:37:10;101510;;;22.47;51.35352
59987;BME280;46181;51.498;5.392;2022-10-29T20:41:41;101516.1;;;22.42;51.37207
59987;BME280;46181;51.498;5.392;2022-10-29T20:46:11;101513.5;;;22.4;51.29883
59987;BME280;46181;51.498;5.392;2022-10-29T20:50:40;101520.2;;;22.4;51.31152
59987;BME280;46181;51.498;5.392;2022-10-29T20:55:11;101516.7;;;22.38;51.38965
59987;BME280;46181;51.498;5.392;2022-10-29T20:59:40;101515.4;;;22.31;51.39355
59987;BME280;46181;51.498;5.392;2022-10-29T21:04:10;101517.2;;;22.24;51.44434
59987;BME280;46181;51.498;5.392;2022-10-29T21:08:40;101523.6;;;22.15;51.5498
59987;BME280;46181;51.498;5.392;2022-10-29T21:13:12;101525.6;;;22.11;51.74023
59987;BME280;46181;51.498;5.392;2022-10-29T21:17:40;101527.3;;;22.09;51.83203
59987;BME280;46181;51.498;5.392;2022-10-29T21:22:10;101534;;;22.07;52.01465
59987;BME280;46181;51.498;5.392;2022-10-29T21:26:40;101537.9;;;22.04;51.96484
59987;BME280;46181;51.498;5.392;2022-10-29T21:31:10;101541.6;;;22.01;51.9043
59987;BME280;46181;51.498;5.392;2022-10-29T21:35:40;101542.9;;;21.94;52.2666
59987;BME280;46181;51.498;5.392;2022-10-29T21:40:11;101546;;;21.9;52.14453
59987;BME280;46181;51.498;5.392;2022-10-29T21:44:40;101545.1;;;21.83;52.27441
59987;BME280;46181;51.498;5.392;2022-10-29T21:49:10;101546.2;;;21.75;52.41797
59987;BME280;46181;51.498;5.392;2022-10-29T21:53:40;101547.5;;;21.67;52.53418
59987;BME280;46181;51.498;5.392;2022-10-29T21:58:11;101539.4;;;21.59;52.62891
59987;BME280;46181;51.498;5.392;2022-10-29T22:02:40;101544.3;;;21.53;52.85254
59987;BME280;46181;51.498;5.392;2022-10-29T22:07:10;101545.4;;;21.42;52.80664
59987;BME280;46181;51.498;5.392;2022-10-29T22:11:40;101548.6;;;21.34;52.90039
59987;BME280;46181;51.498;5.392;2022-10-29T22:16:11;101552.9;;;21.25;52.95898
59987;BME280;46181;51.498;5.392;2022-10-29T22:20:40;101550.5;;;21.17;53.22656
59987;BME280;46181;51.498;5.392;2022-10-29T22:25:11;101550.6;;;21.1;53.24121
59987;BME280;46181;51.498;5.392;2022-10-29T22:29:40;101554.5;;;21.02;53.32422
59987;BME280;46181;51.498;5.392;2022-10-29T22:34:10;101551.6;;;20.93;53.56836
59987;BME280;46181;51.498;5.392;2022-10-29T22:38:40;101554.8;;;20.9;53.5752
59987;BME280;46181;51.498;5.392;2022-10-29T22:43:10;101557.8;;;20.86;53.7207
59987;BME280;46181;51.498;5.392;2022-10-29T22:47:40;101556.1;;;20.83;53.83203
59987;BME280;46181;51.498;5.392;2022-10-29T22:52:10;101560.2;;;20.77;53.95117
59987;BME280;46181;51.498;5.392;2022-10-29T22:56:41;101561;;;20.71;53.95703
59987;BME280;46181;51.498;5.392;2022-10-29T23:01:15;101565.8;;;20.61;54.12891
59987;BME280;46181;51.498;5.392;2022-10-29T23:05:40;101564.9;;;20.58;54.11328
59987;BME280;46181;51.498;5.392;2022-10-29T23:10:11;101565.6;;;20.51;54.33496
59987;BME280;46181;51.498;5.392;2022-10-29T23:14:40;101567.3;;;20.44;54.37207
59987;BME280;46181;51.498;5.392;2022-10-29T23:19:12;101569;;;20.36;54.61719
59987;BME280;46181;51.498;5.392;2022-10-29T23:23:41;101571.5;;;20.32;54.71484
59987;BME280;46181;51.498;5.392;2022-10-29T23:28:10;101573.7;;;20.27;54.75586
59987;BME280;46181;51.498;5.392;2022-10-29T23:32:40;101574.3;;;20.21;55.04785
59987;BME280;46181;51.498;5.392;2022-10-29T23:37:10;101572.5;;;20.16;55.04199